Archival Weather

NSFA McMurdo Sound

NSFA McMurdo Sound, Antarctica (NZCM)

Report from: Friday, September 23, 2022 1:57 PM UTC
Current time: Sunday, December 4, 2022 12:06 PM UTC

Current weather
Weather history
Weather forecast

Present weatherHaze
Temperature-18.6°C (-1.5°F)
Wind chill-29.6°C (-21.3°F)
Dew point-23.2°C (-9.8°F)
Winds 13 kts (6.7 m/s, 15 mph) Vrb
Wind gusts 23 kts (11.8 m/s, 26.5 mph)
Winds variableWinds variable from Northeast (50°) to South-Southeast (150°)
Visibility1.7 mi. (2.7 km)
Clouds Ceiling: Overcast 1,500 ft. (457 m)
Altimeter28.62 in.Hg (969 mB)
Precip. events Snow ended 1:57 PM
Relative humidity67 %
Density altitude-2,712 ft. (-827 m)
Sea-level pressure107.0 kPa (1070 mB, 31.59 in.Hg)
Remarks Fully automated report
System requires maintenance
Special weather observation
Automated weather observing station with precipitation discriminator
Flight conditions Instrument Meteorological Conditions
Raw dataSPECI NZCM 231357Z AUTO 11013G23KT 050V150 2700 HZ OVC015 M19/M23 A2862 RMK AO2 SNE1357 SLP698 T11861232 $
An error has occurred. This application may no longer respond until reloaded. Reload 🗙